createdAt,value
2017-06-19T00:00:50.116Z,102169
2017-06-19T00:03:18.295Z,102176
2017-06-19T00:05:46.501Z,102166
2017-06-19T00:08:14.706Z,102166
2017-06-19T00:10:42.879Z,102172
2017-06-19T00:13:11.113Z,102174
2017-06-19T00:15:40.081Z,102176
2017-06-19T00:18:08.280Z,102170
2017-06-19T00:20:37.280Z,102174
2017-06-19T00:23:11.808Z,102170
2017-06-19T00:25:41.642Z,102168
2017-06-19T00:28:09.836Z,102174
2017-06-19T00:30:38.014Z,102171
2017-06-19T00:33:06.248Z,102167
2017-06-19T00:35:34.439Z,102165
2017-06-19T00:38:02.651Z,102171
2017-06-19T00:40:30.896Z,102163
2017-06-19T00:42:59.100Z,102155
2017-06-19T00:45:27.292Z,102157
2017-06-19T00:47:55.847Z,102160
2017-06-19T00:50:24.057Z,102150
2017-06-19T00:52:52.266Z,102153
2017-06-19T00:55:20.507Z,102158
2017-06-19T00:57:48.699Z,102152
2017-06-19T01:00:17.658Z,102146
2017-06-19T01:02:45.899Z,102150
2017-06-19T01:05:14.091Z,102147
2017-06-19T01:07:42.342Z,102156
2017-06-19T01:10:10.570Z,102150
2017-06-19T01:12:38.745Z,102151
2017-06-19T01:15:06.931Z,102145
2017-06-19T01:17:35.130Z,102145
2017-06-19T01:20:04.088Z,102146
2017-06-19T01:22:32.288Z,102137
2017-06-19T01:25:01.283Z,102137
2017-06-19T01:27:30.246Z,102145
2017-06-19T01:29:58.426Z,102141
2017-06-19T01:32:26.643Z,102143
2017-06-19T01:34:54.830Z,102140
2017-06-19T01:37:23.029Z,102143
2017-06-19T01:39:51.262Z,102140
2017-06-19T01:42:19.476Z,102142
2017-06-19T01:44:47.668Z,102146
2017-06-19T01:47:15.909Z,102142
2017-06-19T01:49:44.125Z,102137
2017-06-19T01:52:12.323Z,102141
2017-06-19T01:54:41.312Z,102145
2017-06-19T01:57:09.522Z,102133
2017-06-19T01:59:37.721Z,102136
2017-06-19T02:02:05.921Z,102134
2017-06-19T02:04:34.110Z,102128
2017-06-19T02:07:02.303Z,102136
2017-06-19T02:09:31.313Z,102133
2017-06-19T02:11:59.508Z,102134
2017-06-19T02:14:27.718Z,102136
2017-06-19T02:16:55.949Z,102135
2017-06-19T02:19:24.155Z,102136
2017-06-19T02:21:52.363Z,102132
2017-06-19T02:24:21.358Z,102129
2017-06-19T02:26:50.307Z,102129
2017-06-19T02:29:18.525Z,102132
2017-06-19T02:31:47.524Z,102130
2017-06-19T02:34:16.483Z,102127
2017-06-19T02:36:44.672Z,102121
2017-06-19T02:39:12.916Z,102125
2017-06-19T02:41:41.111Z,102113
2017-06-19T02:44:09.289Z,102129
2017-06-19T02:46:37.503Z,102127
2017-06-19T02:49:06.441Z,102115
2017-06-19T02:51:34.629Z,102119
2017-06-19T02:54:02.848Z,102115
2017-06-19T02:56:31.789Z,102116
2017-06-19T02:58:59.955Z,102110
2017-06-19T03:01:28.171Z,102120
2017-06-19T03:03:56.360Z,102114
2017-06-19T03:06:25.301Z,102113
2017-06-19T03:08:53.519Z,102116
2017-06-19T03:11:22.464Z,102114
2017-06-19T03:13:50.656Z,102111
2017-06-19T03:16:18.895Z,102107
2017-06-19T03:18:47.089Z,102106
2017-06-19T03:21:15.281Z,102114
2017-06-19T03:23:43.514Z,102102
2017-06-19T03:26:11.687Z,102100
2017-06-19T03:28:39.871Z,102106
2017-06-19T03:31:08.109Z,102107
2017-06-19T03:33:36.299Z,102110
2017-06-19T03:36:05.257Z,102105
2017-06-19T03:38:33.479Z,102107
2017-06-19T03:41:01.652Z,102097
2017-06-19T03:43:29.844Z,102104
2017-06-19T03:45:58.042Z,102104
2017-06-19T03:48:26.232Z,102100
2017-06-19T03:50:54.415Z,102098
2017-06-19T03:53:22.645Z,102107
2017-06-19T03:55:50.854Z,102109
2017-06-19T03:58:19.078Z,102110
2017-06-19T04:00:47.277Z,102108
2017-06-19T04:03:15.465Z,102115
2017-06-19T04:05:43.654Z,102111
2017-06-19T04:08:11.855Z,102107
2017-06-19T04:10:40.048Z,102103
2017-06-19T04:13:08.241Z,102102
2017-06-19T04:15:36.440Z,102105
2017-06-19T04:18:04.653Z,102104
2017-06-19T04:20:32.862Z,102105
2017-06-19T04:23:01.077Z,102103
2017-06-19T04:25:29.291Z,102104
2017-06-19T04:27:58.267Z,102102
2017-06-19T04:30:26.487Z,102110
2017-06-19T04:32:54.675Z,102106
2017-06-19T04:35:22.854Z,102087
2017-06-19T04:37:51.083Z,102101
2017-06-19T04:40:20.039Z,102102
2017-06-19T04:42:48.250Z,102099
2017-06-19T04:45:16.483Z,102092
2017-06-19T04:47:44.652Z,102094
2017-06-19T04:50:12.822Z,102096
2017-06-19T04:52:41.021Z,102094
2017-06-19T04:55:09.216Z,102093
2017-06-19T04:57:37.403Z,102097
2017-06-19T05:00:06.380Z,102096
2017-06-19T05:02:34.571Z,102092
2017-06-19T05:05:03.549Z,102100
2017-06-19T05:07:31.738Z,102092
2017-06-19T05:10:00.678Z,102092
2017-06-19T05:12:28.942Z,102097
2017-06-19T05:14:57.153Z,102093
2017-06-19T05:17:25.364Z,102096
2017-06-19T05:19:54.300Z,102090
2017-06-19T05:22:22.487Z,102092
2017-06-19T05:24:50.676Z,102087
2017-06-19T05:27:18.883Z,102093
2017-06-19T05:29:48.197Z,102082
2017-06-19T05:32:16.383Z,102080
2017-06-19T05:34:44.574Z,102083
2017-06-19T05:37:12.796Z,102085
2017-06-19T05:39:41.774Z,102083
2017-06-19T05:42:10.100Z,102080
2017-06-19T05:44:38.310Z,102088
2017-06-19T05:47:06.487Z,102079
2017-06-19T05:49:34.692Z,102081
2017-06-19T05:52:03.658Z,102080
2017-06-19T05:54:31.878Z,102077
2017-06-19T05:57:00.845Z,102081
2017-06-19T05:59:29.059Z,102084
2017-06-19T06:01:57.265Z,102084
2017-06-19T06:04:25.543Z,102082
2017-06-19T06:06:53.791Z,102085
2017-06-19T06:09:22.001Z,102085
2017-06-19T06:11:50.224Z,102088
2017-06-19T06:14:19.201Z,102091
2017-06-19T06:16:47.373Z,102093
2017-06-19T06:19:15.651Z,102086
2017-06-19T06:21:43.863Z,102091
2017-06-19T06:24:12.074Z,102097
2017-06-19T06:26:40.339Z,102087
2017-06-19T06:29:08.558Z,102095
2017-06-19T06:31:36.788Z,102092
2017-06-19T06:34:04.963Z,102093
2017-06-19T06:36:33.170Z,102091
2017-06-19T06:39:01.365Z,102088
2017-06-19T06:41:29.586Z,102085
2017-06-19T06:43:57.820Z,102086
2017-06-19T06:46:26.798Z,102092
2017-06-19T06:48:54.984Z,102086
2017-06-19T06:51:23.981Z,102086
2017-06-19T06:53:52.198Z,102081
2017-06-19T06:56:20.438Z,102078
2017-06-19T06:58:49.479Z,102083
2017-06-19T07:01:17.757Z,102082
2017-06-19T07:03:46.104Z,102082
2017-06-19T07:06:14.303Z,102081
2017-06-19T07:08:42.579Z,102076
2017-06-19T07:11:10.968Z,102080
2017-06-19T07:13:39.135Z,102078
2017-06-19T07:16:07.336Z,102072
2017-06-19T07:18:35.515Z,102072
2017-06-19T07:21:03.735Z,102066
2017-06-19T07:23:31.941Z,102066
2017-06-19T07:26:00.115Z,102072
2017-06-19T07:28:28.346Z,102067
2017-06-19T07:30:57.332Z,102067
2017-06-19T07:33:26.355Z,102073
2017-06-19T07:35:54.536Z,102066
2017-06-19T07:38:22.753Z,102069
2017-06-19T07:40:51.755Z,102067
2017-06-19T07:43:20.732Z,102065
2017-06-19T07:45:49.046Z,102065
2017-06-19T07:48:18.021Z,102063
2017-06-19T07:50:47.002Z,102062
2017-06-19T07:53:15.234Z,102061
2017-06-19T07:55:43.455Z,102063
2017-06-19T07:58:11.680Z,102063
2017-06-19T08:00:39.873Z,102061
2017-06-19T08:03:08.081Z,102056
2017-06-19T08:05:36.307Z,102063
2017-06-19T08:08:04.508Z,102055
2017-06-19T08:10:32.724Z,102058
2017-06-19T08:13:00.908Z,102051
2017-06-19T08:15:29.885Z,102051
2017-06-19T08:17:58.081Z,102050
2017-06-19T08:20:26.266Z,102045
2017-06-19T08:22:54.461Z,102038
2017-06-19T08:25:22.659Z,102029
2017-06-19T08:27:50.843Z,102033
2017-06-19T08:30:19.071Z,102029
2017-06-19T08:32:47.262Z,102034
2017-06-19T08:35:15.437Z,102042
2017-06-19T08:37:43.656Z,102043
2017-06-19T08:40:11.824Z,102037
2017-06-19T08:42:40.039Z,102032
2017-06-19T08:45:08.991Z,102033
2017-06-19T08:47:37.199Z,102034
2017-06-19T08:50:05.422Z,102029
2017-06-19T08:52:33.599Z,102032
2017-06-19T08:55:01.817Z,102037
2017-06-19T08:57:30.768Z,102033
2017-06-19T08:59:58.959Z,102037
2017-06-19T09:02:27.185Z,102038
2017-06-19T09:04:55.397Z,102039
2017-06-19T09:07:24.019Z,102036
2017-06-19T09:09:52.201Z,102043
2017-06-19T09:12:21.139Z,102040
2017-06-19T09:14:49.347Z,102047
2017-06-19T09:17:17.516Z,102052
2017-06-19T09:19:45.752Z,102041
2017-06-19T09:22:13.945Z,102037
2017-06-19T09:24:42.137Z,102039
2017-06-19T09:27:10.346Z,102040
2017-06-19T09:29:38.548Z,102037
2017-06-19T09:32:06.761Z,102034
2017-06-19T09:34:34.960Z,102031
2017-06-19T09:37:03.149Z,102030
2017-06-19T09:39:32.131Z,102025
2017-06-19T09:42:00.310Z,102030
2017-06-19T09:44:29.293Z,102032
2017-06-19T09:46:57.497Z,102024
2017-06-19T09:49:25.705Z,102021
2017-06-19T09:51:53.891Z,102014
2017-06-19T09:54:22.106Z,102016
2017-06-19T09:56:51.115Z,102016
2017-06-19T09:59:19.329Z,102011
2017-06-19T10:01:47.546Z,102008
2017-06-19T10:04:15.754Z,102005
2017-06-19T10:06:43.945Z,102002
2017-06-19T10:09:12.151Z,102005
2017-06-19T10:11:40.331Z,102009
2017-06-19T10:14:08.497Z,102007
2017-06-19T10:16:36.678Z,102007
2017-06-19T10:19:04.865Z,102014
2017-06-19T10:21:33.102Z,102016
2017-06-19T10:24:01.291Z,102011
2017-06-19T10:26:29.476Z,102012
2017-06-19T10:28:57.659Z,102003
2017-06-19T10:31:25.861Z,102012
2017-06-19T10:33:54.854Z,102010
2017-06-19T10:36:23.819Z,102015
2017-06-19T10:38:52.022Z,102010
2017-06-19T10:41:21.005Z,101999
2017-06-19T10:43:49.194Z,101991
2017-06-19T10:46:18.294Z,101981
2017-06-19T10:48:47.229Z,101989
2017-06-19T10:51:15.433Z,101973
2017-06-19T10:53:43.654Z,101978
2017-06-19T10:56:11.843Z,101970
2017-06-19T10:58:40.059Z,101959
2017-06-19T11:01:08.226Z,101958
2017-06-19T11:03:36.390Z,101959
2017-06-19T11:06:04.606Z,101960
2017-06-19T11:08:32.819Z,101958
2017-06-19T11:11:01.016Z,101960
2017-06-19T11:13:29.200Z,101959
2017-06-19T11:15:57.378Z,101962
2017-06-19T11:18:25.579Z,101949
2017-06-19T11:20:54.543Z,101949
2017-06-19T11:23:22.765Z,101943
2017-06-19T11:25:50.992Z,101946
2017-06-19T11:28:19.173Z,101938
2017-06-19T11:30:47.369Z,101944
2017-06-19T11:33:15.538Z,101943
2017-06-19T11:35:43.775Z,101937
2017-06-19T11:38:11.979Z,101932
2017-06-19T11:40:40.188Z,101938
2017-06-19T11:43:08.373Z,101930
2017-06-19T11:45:36.578Z,101937
2017-06-19T11:48:04.804Z,101927
2017-06-19T11:50:34.514Z,101921
2017-06-19T11:53:03.454Z,101919
2017-06-19T11:55:31.641Z,101917
2017-06-19T11:57:59.832Z,101907
2017-06-19T12:00:28.064Z,101918
2017-06-19T12:02:56.276Z,101908
2017-06-19T12:05:24.444Z,101912
2017-06-19T12:07:52.678Z,101909
2017-06-19T12:10:20.882Z,101900
2017-06-19T12:12:49.050Z,101892
2017-06-19T12:15:17.252Z,101890
2017-06-19T12:17:45.478Z,101884
2017-06-19T12:20:13.680Z,101884
2017-06-19T12:22:41.879Z,101886
2017-06-19T12:25:10.069Z,101885
2017-06-19T12:27:39.057Z,101860
2017-06-19T12:30:07.231Z,101864
2017-06-19T12:32:35.392Z,101869
2017-06-19T12:35:03.595Z,101870
2017-06-19T12:37:31.806Z,101857
2017-06-19T12:40:00.027Z,101860
2017-06-19T12:42:28.233Z,101858
2017-06-19T12:44:57.183Z,101859
2017-06-19T12:47:25.368Z,101849
2017-06-19T12:49:53.560Z,101845
2017-06-19T12:52:21.779Z,101841
2017-06-19T12:54:49.970Z,101839
2017-06-19T12:57:18.135Z,101839
2017-06-19T12:59:46.335Z,101828
2017-06-19T13:02:14.524Z,101832
2017-06-19T13:04:42.720Z,101820
2017-06-19T13:07:10.915Z,101818
2017-06-19T13:09:39.100Z,101822
2017-06-19T13:12:07.280Z,101819
2017-06-19T13:14:35.467Z,101815
2017-06-19T13:17:03.744Z,101818
2017-06-19T13:19:31.938Z,101808
2017-06-19T13:22:00.135Z,101814
2017-06-19T13:24:28.365Z,101818
2017-06-19T13:26:56.600Z,101807
2017-06-19T13:29:25.613Z,101806
2017-06-19T13:31:53.830Z,101813
2017-06-19T13:34:22.023Z,101806
2017-06-19T13:36:50.231Z,101807
2017-06-19T13:39:18.396Z,101801
2017-06-19T13:41:47.384Z,101795
2017-06-19T13:44:15.590Z,101802
2017-06-19T13:46:43.762Z,101788
2017-06-19T13:49:11.960Z,101784
2017-06-19T13:51:40.142Z,101780
2017-06-19T13:54:08.336Z,101779
2017-06-19T13:56:36.551Z,101772
2017-06-19T13:59:04.740Z,101767
2017-06-19T14:01:32.947Z,101777
2017-06-19T14:04:01.132Z,101770
2017-06-19T14:06:29.352Z,101772
2017-06-19T14:08:57.565Z,101772
2017-06-19T14:11:25.749Z,101760
2017-06-19T14:13:53.936Z,101750
2017-06-19T14:16:22.145Z,101763
2017-06-19T14:18:51.124Z,101763
2017-06-19T14:21:20.094Z,101754
2017-06-19T14:23:48.320Z,101748
2017-06-19T14:26:16.527Z,101741
2017-06-19T14:28:44.698Z,101724
2017-06-19T14:31:12.889Z,101726
2017-06-19T14:33:41.073Z,101725
2017-06-19T14:36:09.263Z,101723
2017-06-19T14:38:37.474Z,101723
2017-06-19T14:41:05.670Z,101722
2017-06-19T14:43:33.892Z,101721
2017-06-19T14:46:02.848Z,101717
2017-06-19T14:48:31.039Z,101704
2017-06-19T14:50:59.247Z,101711
2017-06-19T14:53:27.435Z,101699
2017-06-19T14:55:55.635Z,101698
2017-06-19T14:58:23.839Z,101692
2017-06-19T15:00:52.049Z,101699
2017-06-19T15:03:20.256Z,101683
2017-06-19T15:05:48.466Z,101693
2017-06-19T15:08:16.667Z,101684
2017-06-19T15:10:45.601Z,101685
2017-06-19T15:13:13.783Z,101680
2017-06-19T15:15:42.002Z,101674
2017-06-19T15:18:10.968Z,101671
2017-06-19T15:20:39.180Z,101679
2017-06-19T15:23:08.130Z,101680
2017-06-19T15:25:36.326Z,101662
2017-06-19T15:28:04.535Z,101665
2017-06-19T15:30:32.744Z,101668
2017-06-19T15:33:00.977Z,101660
2017-06-19T15:35:29.167Z,101668
2017-06-19T15:37:57.347Z,101657
2017-06-19T15:40:25.555Z,101650
2017-06-19T15:42:53.796Z,101645
2017-06-19T15:45:22.023Z,101649
2017-06-19T15:47:50.230Z,101648
2017-06-19T15:50:19.175Z,101648
2017-06-19T15:52:47.401Z,101643
2017-06-19T15:55:15.582Z,101646
2017-06-19T15:57:43.799Z,101642
2017-06-19T16:00:11.980Z,101636
2017-06-19T16:02:40.168Z,101639
2017-06-19T16:05:08.361Z,101631
2017-06-19T16:07:37.316Z,101635
2017-06-19T16:10:05.532Z,101637
2017-06-19T16:12:34.469Z,101633
2017-06-19T16:15:02.637Z,101635
2017-06-19T16:17:30.853Z,101631
2017-06-19T16:19:59.066Z,101629
2017-06-19T16:22:27.293Z,101626
2017-06-19T16:24:55.495Z,101621
2017-06-19T16:27:23.704Z,101624
2017-06-19T16:29:51.911Z,101618
2017-06-19T16:32:20.076Z,101617
2017-06-19T16:34:48.272Z,101619
2017-06-19T16:37:16.456Z,101613
2017-06-19T16:39:44.648Z,101604
2017-06-19T16:42:13.619Z,101604
2017-06-19T16:44:41.796Z,101608
2017-06-19T16:47:09.985Z,101604
2017-06-19T16:49:38.184Z,101606
2017-06-19T16:52:06.395Z,101603
2017-06-19T16:54:34.565Z,101599
2017-06-19T16:57:02.772Z,101601
2017-06-19T16:59:30.958Z,101608
2017-06-19T17:01:59.157Z,101598
2017-06-19T17:04:27.343Z,101609
2017-06-19T17:06:55.531Z,101592
2017-06-19T17:09:23.795Z,101595
2017-06-19T17:11:51.969Z,101590
2017-06-19T17:14:20.235Z,101589
2017-06-19T17:16:48.427Z,101588
2017-06-19T17:19:16.596Z,101578
2017-06-19T17:21:44.807Z,101584
2017-06-19T17:24:13.010Z,101587
2017-06-19T17:26:41.248Z,101576
2017-06-19T17:29:09.461Z,101587
2017-06-19T17:31:37.687Z,101582
2017-06-19T17:34:05.924Z,101577
2017-06-19T17:36:34.898Z,101577
2017-06-19T17:39:03.240Z,101577
2017-06-19T17:41:31.451Z,101569
2017-06-19T17:43:59.666Z,101577
2017-06-19T17:46:27.872Z,101568
2017-06-19T17:48:56.177Z,101567
2017-06-19T17:51:24.414Z,101567
2017-06-19T17:53:52.598Z,101562
2017-06-19T17:56:20.794Z,101568
2017-06-19T17:58:49.013Z,101570
2017-06-19T18:01:17.203Z,101570
2017-06-19T18:03:45.416Z,101570
2017-06-19T18:06:13.600Z,101561
2017-06-19T18:08:41.773Z,101554
2017-06-19T18:11:09.976Z,101563
2017-06-19T18:13:39.032Z,101572
2017-06-19T18:16:07.261Z,101567
2017-06-19T18:18:35.476Z,101572
2017-06-19T18:21:03.725Z,101569
2017-06-19T18:23:31.948Z,101572
2017-06-19T18:26:00.153Z,101563
2017-06-19T18:28:29.301Z,101564
2017-06-19T18:30:57.483Z,101569
2017-06-19T18:33:25.680Z,101567
2017-06-19T18:35:53.984Z,101558
2017-06-19T18:38:22.204Z,101570
2017-06-19T18:40:50.405Z,101566
2017-06-19T18:43:18.597Z,101558
2017-06-19T18:45:47.556Z,101561
2017-06-19T18:48:15.787Z,101551
2017-06-19T18:50:44.007Z,101560
2017-06-19T18:53:12.217Z,101559
2017-06-19T18:55:41.159Z,101557
2017-06-19T18:58:09.360Z,101555
2017-06-19T19:00:37.583Z,101552
2017-06-19T19:03:06.223Z,101551
2017-06-19T19:05:34.507Z,101550
2017-06-19T19:08:02.778Z,101548
2017-06-19T19:10:31.079Z,101548
2017-06-19T19:12:59.322Z,101548
2017-06-19T19:15:27.544Z,101544
2017-06-19T19:17:55.758Z,101544
2017-06-19T19:20:24.713Z,101547
2017-06-19T19:22:52.915Z,101549
2017-06-19T19:25:21.156Z,101542
2017-06-19T19:27:49.355Z,101538
2017-06-19T19:30:17.600Z,101535
2017-06-19T19:32:45.796Z,101545
2017-06-19T19:35:14.005Z,101538
2017-06-19T19:37:42.227Z,101547
2017-06-19T19:40:10.462Z,101550
2017-06-19T19:42:38.714Z,101548
2017-06-19T19:45:06.917Z,101547
2017-06-19T19:47:35.115Z,101549
2017-06-19T19:50:03.354Z,101542
2017-06-19T19:52:31.552Z,101551
2017-06-19T19:54:59.803Z,101540
2017-06-19T19:57:28.006Z,101549
2017-06-19T19:59:56.237Z,101547
2017-06-19T20:02:24.459Z,101544
2017-06-19T20:04:52.641Z,101543
2017-06-19T20:07:20.864Z,101542
2017-06-19T20:09:49.050Z,101544
2017-06-19T20:12:17.252Z,101544
2017-06-19T20:14:45.484Z,101542
2017-06-19T20:17:13.696Z,101544
2017-06-19T20:19:41.940Z,101540
2017-06-19T20:22:10.233Z,101544
2017-06-19T20:24:38.467Z,101544
2017-06-19T20:27:07.467Z,101546
2017-06-19T20:29:36.437Z,101544
2017-06-19T20:32:04.684Z,101546
2017-06-19T20:34:32.882Z,101545
2017-06-19T20:37:01.080Z,101539
2017-06-19T20:39:29.292Z,101540
2017-06-19T20:41:57.474Z,101545
2017-06-19T20:44:25.699Z,101543
2017-06-19T20:46:53.907Z,101550
2017-06-19T20:49:22.116Z,101544
2017-06-19T20:51:50.360Z,101540
2017-06-19T20:54:18.539Z,101531
2017-06-19T20:56:46.731Z,101539
2017-06-19T20:59:14.940Z,101539
2017-06-19T21:01:43.127Z,101537
2017-06-19T21:04:11.305Z,101541
2017-06-19T21:06:39.496Z,101537
2017-06-19T21:09:08.474Z,101544
2017-06-19T21:11:36.696Z,101538
2017-06-19T21:14:04.882Z,101535
2017-06-19T21:16:33.099Z,101536
2017-06-19T21:19:01.330Z,101546
2017-06-19T21:21:29.531Z,101547
2017-06-19T21:23:57.757Z,101543
2017-06-19T21:26:25.970Z,101543
2017-06-19T21:28:54.152Z,101535
2017-06-19T21:31:22.365Z,101539
2017-06-19T21:33:51.308Z,101533
2017-06-19T21:36:19.512Z,101536
2017-06-19T21:38:47.684Z,101530
2017-06-19T21:41:15.938Z,101525
2017-06-19T21:43:44.144Z,101525
2017-06-19T21:46:12.340Z,101531
2017-06-19T21:48:41.350Z,101528
2017-06-19T21:51:09.547Z,101531
2017-06-19T21:53:37.740Z,101533
2017-06-19T21:56:05.951Z,101529
2017-06-19T21:58:34.912Z,101533
2017-06-19T22:01:03.139Z,101530
2017-06-19T22:03:31.370Z,101531
2017-06-19T22:05:59.586Z,101533
2017-06-19T22:08:28.566Z,101537
2017-06-19T22:10:57.980Z,101529
2017-06-19T22:13:26.211Z,101543
2017-06-19T22:15:54.419Z,101536
2017-06-19T22:18:23.040Z,101528
2017-06-19T22:21:07.015Z,101535
2017-06-19T22:23:36.163Z,101531
2017-06-19T22:26:05.152Z,101541
2017-06-19T22:28:34.605Z,101531
2017-06-19T22:31:02.798Z,101526
2017-06-19T22:33:31.024Z,101530
2017-06-19T22:35:59.232Z,101524
2017-06-19T22:38:27.447Z,101524
2017-06-19T22:40:56.455Z,101524
2017-06-19T22:43:25.394Z,101527
2017-06-19T22:45:53.583Z,101523
2017-06-19T22:48:21.801Z,101522
2017-06-19T22:50:50.839Z,101517
2017-06-19T22:53:19.048Z,101522
2017-06-19T22:55:47.265Z,101519
2017-06-19T22:58:15.460Z,101518
2017-06-19T23:00:43.644Z,101511
2017-06-19T23:03:11.882Z,101501
2017-06-19T23:05:40.103Z,101495
2017-06-19T23:08:08.339Z,101500
2017-06-19T23:10:36.595Z,101500
2017-06-19T23:13:05.616Z,101501
2017-06-19T23:15:33.817Z,101499
2017-06-19T23:18:02.060Z,101492
2017-06-19T23:20:30.256Z,101493
2017-06-19T23:22:58.430Z,101489
2017-06-19T23:25:26.676Z,101492
2017-06-19T23:27:54.935Z,101485
2017-06-19T23:30:23.911Z,101488
2017-06-19T23:32:52.146Z,101479
2017-06-19T23:35:20.339Z,101481
2017-06-19T23:37:48.517Z,101488
2017-06-19T23:40:16.748Z,101486
2017-06-19T23:42:44.952Z,101482
2017-06-19T23:45:13.133Z,101479
2017-06-19T23:47:41.347Z,101484
2017-06-19T23:50:09.545Z,101485
2017-06-19T23:52:38.485Z,101486
2017-06-19T23:55:06.746Z,101480
2017-06-19T23:57:34.951Z,101487
